createdAt,value
2018-03-23T00:00:40.153Z,0.0
2018-03-23T00:01:39.926Z,0.0
2018-03-23T00:02:40.229Z,0.0
2018-03-23T00:03:40.403Z,0.0
2018-03-23T00:04:40.132Z,0.0
2018-03-23T00:05:39.722Z,0.0
2018-03-23T00:06:39.893Z,0.0
2018-03-23T00:07:40.217Z,0.0
2018-03-23T00:08:39.917Z,0.0
2018-03-23T00:09:40.154Z,0.0
2018-03-23T00:11:40.234Z,0.0
2018-03-23T00:12:40.260Z,0.0
2018-03-23T00:13:39.945Z,0.0
2018-03-23T00:14:39.918Z,0.0
2018-03-23T00:15:40.270Z,0.0
2018-03-23T00:16:40.266Z,0.0
2018-03-23T00:17:40.223Z,0.0
2018-03-23T00:18:39.699Z,0.0
2018-03-23T00:19:39.733Z,0.0
2018-03-23T00:20:40.269Z,0.0
2018-03-23T00:21:40.233Z,0.0
2018-03-23T00:22:40.277Z,0.0
2018-03-23T00:24:40.245Z,0.0
2018-03-23T00:25:40.268Z,0.0
2018-03-23T00:26:40.250Z,0.0
2018-03-23T00:27:39.757Z,0.0
2018-03-23T00:28:40.156Z,0.0
2018-03-23T00:29:39.735Z,0.0
2018-03-23T00:30:40.178Z,0.0
2018-03-23T00:31:40.249Z,0.0
2018-03-23T00:32:39.715Z,0.0
2018-03-23T00:33:40.126Z,0.0
2018-03-23T00:34:40.174Z,0.0
2018-03-23T00:35:40.273Z,0.0
2018-03-23T00:36:40.240Z,0.0
2018-03-23T00:37:40.181Z,0.0
2018-03-23T00:38:40.259Z,0.0
2018-03-23T00:39:40.153Z,0.0
2018-03-23T00:40:40.260Z,0.0
2018-03-23T00:41:39.776Z,0.0
2018-03-23T00:42:40.218Z,0.0
2018-03-23T00:44:40.217Z,0.0
2018-03-23T00:45:40.685Z,0.0
2018-03-23T00:47:39.791Z,0.0
2018-03-23T00:48:40.941Z,0.0
2018-03-23T00:49:40.270Z,0.0
2018-03-23T00:50:39.828Z,0.0
2018-03-23T00:51:39.988Z,0.0
2018-03-23T00:52:40.215Z,0.0
2018-03-23T00:53:40.271Z,0.0
2018-03-23T00:55:39.817Z,0.0
2018-03-23T00:56:40.296Z,0.0
2018-03-23T00:57:40.010Z,0.0
2018-03-23T00:58:39.967Z,0.0
2018-03-23T00:59:39.911Z,0.0
2018-03-23T01:01:40.578Z,0.0
2018-03-23T01:02:40.353Z,0.0
2018-03-23T01:03:40.603Z,0.0
2018-03-23T01:04:40.384Z,0.0
2018-03-23T01:05:40.654Z,0.0
2018-03-23T01:06:40.327Z,0.0
2018-03-23T01:07:40.555Z,0.0
2018-03-23T01:08:40.594Z,0.0
2018-03-23T01:09:40.528Z,0.0
2018-03-23T01:10:40.655Z,0.0
2018-03-23T01:11:40.519Z,0.0
2018-03-23T01:12:40.539Z,0.0
2018-03-23T01:13:40.286Z,0.0
2018-03-23T01:14:40.149Z,0.0
2018-03-23T01:15:40.608Z,0.0
2018-03-23T01:16:40.567Z,0.0
2018-03-23T01:17:40.617Z,0.0
2018-03-23T01:18:40.290Z,0.0
2018-03-23T01:19:40.340Z,0.0
2018-03-23T01:20:40.336Z,0.0
2018-03-23T01:21:40.366Z,0.0
2018-03-23T01:22:40.234Z,0.0
2018-03-23T01:24:40.678Z,0.0
2018-03-23T01:25:40.565Z,0.0
2018-03-23T01:26:40.617Z,0.0
2018-03-23T01:27:40.624Z,0.0
2018-03-23T01:28:40.619Z,0.0
2018-03-23T01:29:40.389Z,0.0
2018-03-23T01:30:40.640Z,0.0
2018-03-23T01:31:40.671Z,0.0
2018-03-23T01:32:40.164Z,0.0
2018-03-23T01:33:40.700Z,0.0
2018-03-23T01:35:40.440Z,0.0
2018-03-23T01:36:40.245Z,0.0
2018-03-23T01:37:40.480Z,0.0
2018-03-23T01:38:40.538Z,0.0
2018-03-23T01:39:40.482Z,0.0
2018-03-23T01:40:40.334Z,0.0
2018-03-23T01:41:40.676Z,0.0
2018-03-23T01:42:40.616Z,0.0
2018-03-23T01:44:40.229Z,0.0
2018-03-23T01:45:40.639Z,0.0
2018-03-23T01:47:40.666Z,0.0
2018-03-23T01:48:40.661Z,0.0
2018-03-23T01:49:40.413Z,0.0
2018-03-23T01:50:40.374Z,0.0
2018-03-23T01:51:40.253Z,0.0
2018-03-23T01:52:40.671Z,0.0
2018-03-23T01:53:40.712Z,0.0
2018-03-23T01:54:40.461Z,0.0
2018-03-23T01:55:40.534Z,0.0
2018-03-23T01:56:40.441Z,0.0
2018-03-23T01:57:40.699Z,0.0
2018-03-23T01:58:40.577Z,0.0
2018-03-23T02:00:40.395Z,0.0
2018-03-23T02:01:40.270Z,0.0
2018-03-23T02:02:40.656Z,0.0
2018-03-23T02:03:40.446Z,0.0
2018-03-23T02:04:40.624Z,0.0
2018-03-23T02:05:40.216Z,0.0
2018-03-23T02:06:40.660Z,0.0
2018-03-23T02:07:40.643Z,0.0
2018-03-23T02:08:40.450Z,0.0
2018-03-23T02:09:40.652Z,0.0
2018-03-23T02:10:40.598Z,0.0
2018-03-23T02:11:40.788Z,0.0
2018-03-23T02:12:40.696Z,0.0
2018-03-23T02:13:40.271Z,0.0
2018-03-23T02:14:40.511Z,0.0
2018-03-23T02:15:40.431Z,0.0
2018-03-23T02:16:40.247Z,0.0
2018-03-23T02:17:40.980Z,0.0
2018-03-23T02:18:40.674Z,0.0
2018-03-23T02:19:40.460Z,0.0
2018-03-23T02:20:40.433Z,0.0
2018-03-23T02:21:51.043Z,0.0
2018-03-23T02:22:40.623Z,0.0
2018-03-23T02:23:40.642Z,0.0
2018-03-23T02:24:40.282Z,0.0
2018-03-23T02:25:41.377Z,0.0
2018-03-23T02:26:40.761Z,0.0
2018-03-23T02:28:40.744Z,0.0
2018-03-23T02:29:40.313Z,0.0
2018-03-23T02:30:40.326Z,0.0
2018-03-23T02:31:40.731Z,0.0
2018-03-23T02:32:40.655Z,0.0
2018-03-23T02:34:40.644Z,0.0
2018-03-23T02:35:40.362Z,0.0
2018-03-23T02:37:40.187Z,0.0
2018-03-23T02:38:40.476Z,0.0
2018-03-23T02:39:39.988Z,0.0
2018-03-23T02:40:40.009Z,0.0
2018-03-23T02:41:40.292Z,0.0
2018-03-23T02:42:40.509Z,0.0
2018-03-23T02:43:40.378Z,0.0
2018-03-23T02:44:40.008Z,0.0
2018-03-23T02:45:40.243Z,0.0
2018-03-23T02:47:40.021Z,0.0
2018-03-23T02:48:40.401Z,0.0
2018-03-23T02:49:40.482Z,0.0
2018-03-23T02:50:40.457Z,0.0
2018-03-23T02:51:40.725Z,0.0
2018-03-23T02:52:40.278Z,0.0
2018-03-23T02:53:40.001Z,0.0
2018-03-23T02:54:40.446Z,0.0
2018-03-23T02:55:40.510Z,0.0
2018-03-23T02:56:39.992Z,0.0
2018-03-23T02:57:39.999Z,0.0
2018-03-23T02:59:40.471Z,0.0
2018-03-23T03:00:40.409Z,0.0
2018-03-23T03:01:40.414Z,0.0
2018-03-23T03:02:40.252Z,0.0
2018-03-23T03:03:40.238Z,0.0
2018-03-23T03:04:39.996Z,0.0
2018-03-23T03:05:40.444Z,0.0
2018-03-23T03:06:40.527Z,0.0
2018-03-23T03:07:40.264Z,0.0
2018-03-23T03:09:40.444Z,0.0
2018-03-23T03:10:40.464Z,0.0
2018-03-23T03:11:40.523Z,0.0
2018-03-23T03:12:40.493Z,0.0
2018-03-23T03:13:40.534Z,0.0
2018-03-23T03:15:40.483Z,0.0
2018-03-23T03:16:40.028Z,0.0
2018-03-23T03:17:40.479Z,0.0
2018-03-23T03:20:40.046Z,0.0
2018-03-23T03:23:40.247Z,0.0
2018-03-23T03:24:40.038Z,0.0
2018-03-23T03:25:40.330Z,0.0
2018-03-23T03:26:40.544Z,0.0
2018-03-23T03:27:40.361Z,0.0
2018-03-23T03:29:40.484Z,0.0
2018-03-23T03:30:40.335Z,0.0
2018-03-23T03:31:40.059Z,0.0
2018-03-23T03:32:40.312Z,0.0
2018-03-23T03:34:40.528Z,0.0
2018-03-23T03:35:40.531Z,0.0
2018-03-23T03:36:40.284Z,0.0
2018-03-23T03:37:40.577Z,0.0
2018-03-23T03:38:40.089Z,0.0
2018-03-23T03:39:40.554Z,0.0
2018-03-23T03:40:40.597Z,0.0
2018-03-23T03:42:40.497Z,0.0
2018-03-23T03:43:40.601Z,0.0
2018-03-23T03:44:40.603Z,0.0
2018-03-23T03:45:40.402Z,0.0
2018-03-23T03:46:40.108Z,0.0
2018-03-23T03:47:40.349Z,0.0
2018-03-23T03:49:40.325Z,0.0
2018-03-23T03:50:40.349Z,0.0
2018-03-23T03:51:40.481Z,0.0
2018-03-23T03:52:40.640Z,0.0
2018-03-23T03:53:40.455Z,0.0
2018-03-23T03:54:40.512Z,0.0
2018-03-23T03:55:40.593Z,0.0
2018-03-23T03:56:40.187Z,0.0
2018-03-23T03:57:40.537Z,0.0
2018-03-23T03:58:40.124Z,0.0
2018-03-23T04:00:40.086Z,0.0
2018-03-23T04:01:40.331Z,0.0
2018-03-23T04:02:40.591Z,0.0
2018-03-23T04:03:40.622Z,0.0
2018-03-23T04:04:40.542Z,0.0
2018-03-23T04:05:40.439Z,0.0
2018-03-23T04:06:40.385Z,0.0
2018-03-23T04:07:40.678Z,0.0
2018-03-23T04:08:40.131Z,0.0
2018-03-23T04:09:40.121Z,0.0
2018-03-23T04:10:40.363Z,0.0
2018-03-23T04:11:40.096Z,0.0
2018-03-23T04:12:40.697Z,0.0
2018-03-23T04:13:40.129Z,0.0
2018-03-23T04:14:40.131Z,0.0
2018-03-23T04:15:40.604Z,0.0
2018-03-23T04:16:40.393Z,0.0
2018-03-23T04:17:40.543Z,0.0
2018-03-23T04:18:40.220Z,0.0
2018-03-23T04:19:40.121Z,0.0
2018-03-23T04:20:40.520Z,0.0
2018-03-23T04:21:40.634Z,0.0
2018-03-23T04:22:40.651Z,0.0
2018-03-23T04:23:40.157Z,0.0
2018-03-23T04:24:40.608Z,0.0
2018-03-23T04:25:40.653Z,0.0
2018-03-23T04:26:40.201Z,0.0
2018-03-23T04:27:40.680Z,0.0
2018-03-23T04:28:40.427Z,0.0
2018-03-23T04:29:40.623Z,0.0
2018-03-23T04:30:40.384Z,0.0
2018-03-23T04:31:40.376Z,0.0
2018-03-23T04:33:40.716Z,0.0
2018-03-23T04:34:40.620Z,0.0
2018-03-23T04:35:40.543Z,0.0
2018-03-23T04:36:40.608Z,0.0
2018-03-23T04:37:40.454Z,0.0
2018-03-23T04:38:40.622Z,0.0
2018-03-23T04:39:40.462Z,0.0
2018-03-23T04:40:40.437Z,0.0
2018-03-23T04:42:40.777Z,0.0
2018-03-23T04:43:40.757Z,0.0
2018-03-23T04:44:40.744Z,0.0
2018-03-23T04:47:40.648Z,0.0
2018-03-23T04:48:40.444Z,0.0
2018-03-23T04:49:40.247Z,0.0
2018-03-23T04:50:40.392Z,0.0
2018-03-23T04:51:40.434Z,0.0
2018-03-23T04:52:40.186Z,0.0
2018-03-23T04:53:40.705Z,0.0
2018-03-23T04:54:40.694Z,0.0
2018-03-23T04:56:40.198Z,0.0
2018-03-23T04:58:40.482Z,0.0
2018-03-23T05:00:40.700Z,0.0
2018-03-23T05:01:40.420Z,0.0
2018-03-23T05:03:40.455Z,0.0
2018-03-23T05:04:40.462Z,0.0
2018-03-23T05:06:40.690Z,0.0
2018-03-23T05:07:40.670Z,0.0
2018-03-23T05:08:40.282Z,0.0
2018-03-23T05:09:40.683Z,0.0
2018-03-23T05:10:40.731Z,0.0
2018-03-23T05:11:40.680Z,0.0
2018-03-23T05:12:40.285Z,0.0
2018-03-23T05:13:40.672Z,0.0
2018-03-23T05:14:40.680Z,0.0
2018-03-23T05:15:40.317Z,0.0
2018-03-23T05:16:40.754Z,0.0
2018-03-23T05:18:40.362Z,0.0
2018-03-23T05:19:40.375Z,0.0
2018-03-23T05:21:40.370Z,0.0
2018-03-23T05:22:40.655Z,0.0
2018-03-23T05:23:40.690Z,0.0
2018-03-23T05:25:40.736Z,0.0
2018-03-23T05:26:40.493Z,0.0
2018-03-23T05:28:40.739Z,0.0
2018-03-23T05:29:40.348Z,0.0
2018-03-23T05:30:40.508Z,0.0
2018-03-23T05:32:40.501Z,0.0
2018-03-23T05:33:40.297Z,0.0
2018-03-23T05:34:40.558Z,0.0
2018-03-23T05:35:40.278Z,0.0
2018-03-23T05:36:40.819Z,0.0
2018-03-23T05:37:40.484Z,0.0
2018-03-23T05:38:40.497Z,0.0
2018-03-23T05:40:40.333Z,0.0
2018-03-23T05:42:40.333Z,0.0
2018-03-23T05:43:40.560Z,0.0
2018-03-23T05:44:40.808Z,0.0
2018-03-23T05:45:40.521Z,0.0
2018-03-23T05:46:40.365Z,0.0
2018-03-23T05:47:40.766Z,0.0
2018-03-23T05:48:40.341Z,0.0
2018-03-23T05:49:40.318Z,0.0
2018-03-23T05:50:40.544Z,0.0
2018-03-23T05:51:40.543Z,0.0
2018-03-23T05:52:40.792Z,0.0
2018-03-23T05:54:40.342Z,0.0
2018-03-23T05:55:40.555Z,0.0
2018-03-23T05:56:40.941Z,0.0
2018-03-23T05:58:40.412Z,0.0
2018-03-23T05:59:40.796Z,0.0
2018-03-23T06:03:40.762Z,0.0
2018-03-23T06:04:40.433Z,0.0
2018-03-23T06:05:40.845Z,0.0
2018-03-23T06:07:40.380Z,0.0
2018-03-23T06:08:40.842Z,0.0
2018-03-23T06:09:40.584Z,0.0
2018-03-23T06:10:40.600Z,0.0
2018-03-23T06:11:40.689Z,0.0
2018-03-23T06:12:40.408Z,0.0
2018-03-23T06:13:40.404Z,0.0
2018-03-23T06:15:40.876Z,0.0
2018-03-23T06:16:40.793Z,0.0
2018-03-23T06:17:40.761Z,0.0
2018-03-23T06:19:40.858Z,0.0
2018-03-23T06:20:40.619Z,0.0
2018-03-23T06:21:40.820Z,0.0
2018-03-23T06:22:52.796Z,0.0
2018-03-23T06:24:40.935Z,0.0
2018-03-23T06:25:40.840Z,0.0
2018-03-23T06:26:40.840Z,0.0
2018-03-23T06:27:40.841Z,0.0
2018-03-23T06:28:40.447Z,0.0
2018-03-23T06:29:40.836Z,0.0
2018-03-23T06:30:40.855Z,0.0
2018-03-23T06:32:40.844Z,0.0
2018-03-23T06:33:41.069Z,0.0
2018-03-23T06:34:40.457Z,0.0
2018-03-23T06:35:40.434Z,0.0
2018-03-23T06:36:40.933Z,0.0
2018-03-23T06:37:40.816Z,0.0
2018-03-23T06:38:40.846Z,0.0
2018-03-23T06:39:40.870Z,0.0
2018-03-23T06:40:40.880Z,0.0
2018-03-23T06:42:40.665Z,0.0
2018-03-23T06:43:40.412Z,0.0
2018-03-23T06:44:40.879Z,0.0
2018-03-23T06:46:40.978Z,0.0
2018-03-23T06:47:40.483Z,0.0
2018-03-23T06:48:40.681Z,0.0
2018-03-23T06:49:40.834Z,0.0
2018-03-23T06:50:40.916Z,0.0
2018-03-23T06:51:40.837Z,0.0
2018-03-23T06:52:40.450Z,0.0
2018-03-23T06:54:40.991Z,0.0
2018-03-23T06:56:40.674Z,0.0
2018-03-23T06:57:40.856Z,0.0
2018-03-23T06:58:40.964Z,0.0
2018-03-23T06:59:41.104Z,0.0
2018-03-23T07:00:41.075Z,0.2
2018-03-23T07:01:40.768Z,0.2
2018-03-23T07:02:40.628Z,0.2
2018-03-23T07:03:41.796Z,0.2
2018-03-23T07:04:41.253Z,0.2
2018-03-23T07:06:40.534Z,1.1
2018-03-23T07:07:41.180Z,0.0
2018-03-23T07:09:40.781Z,0.0
2018-03-23T07:10:41.210Z,0.0
2018-03-23T07:11:40.830Z,0.0
2018-03-23T07:12:41.048Z,0.0
2018-03-23T07:13:40.814Z,0.0
2018-03-23T07:14:41.060Z,0.0
2018-03-23T07:15:40.724Z,0.0
2018-03-23T07:16:40.980Z,0.0
2018-03-23T07:17:41.056Z,0.0
2018-03-23T07:18:40.576Z,0.0
2018-03-23T07:19:40.554Z,0.0
2018-03-23T07:21:40.579Z,0.0
2018-03-23T07:22:41.139Z,0.0
2018-03-23T07:24:40.994Z,0.0
2018-03-23T07:25:40.802Z,0.0
2018-03-23T07:26:41.163Z,0.0
2018-03-23T07:27:41.068Z,0.0
2018-03-23T07:28:41.603Z,0.0
2018-03-23T07:29:40.669Z,0.0
2018-03-23T07:30:40.798Z,0.0
2018-03-23T07:31:40.845Z,0.0
2018-03-23T07:33:40.844Z,0.0
2018-03-23T07:35:40.848Z,0.0
2018-03-23T07:36:40.602Z,0.0
2018-03-23T07:37:41.047Z,0.0
2018-03-23T07:38:41.080Z,0.0
2018-03-23T07:39:41.111Z,0.0
2018-03-23T07:40:41.107Z,0.0
2018-03-23T07:41:40.848Z,0.5
2018-03-23T07:42:41.785Z,0.5
2018-03-23T07:43:40.780Z,0.5
2018-03-23T07:44:41.085Z,0.5
2018-03-23T07:45:41.100Z,0.5
2018-03-23T07:46:41.216Z,1.1
2018-03-23T07:48:40.836Z,0.2
2018-03-23T07:49:40.851Z,0.2
2018-03-23T07:51:41.071Z,0.0
2018-03-23T07:52:40.988Z,0.0
2018-03-23T07:53:40.610Z,0.2
2018-03-23T07:54:40.630Z,0.2
2018-03-23T07:56:40.852Z,0.8
2018-03-23T07:57:40.689Z,0.8
2018-03-23T07:59:40.593Z,0.0
2018-03-23T08:00:41.013Z,0.0
2018-03-23T08:01:41.141Z,0.0
2018-03-23T08:03:40.649Z,0.0
2018-03-23T08:04:40.987Z,0.0
2018-03-23T08:05:40.881Z,0.0
2018-03-23T08:06:41.078Z,0.0
2018-03-23T08:07:40.676Z,0.0
2018-03-23T08:08:41.125Z,0.0
2018-03-23T08:10:40.854Z,0.0
2018-03-23T08:11:40.626Z,0.0
2018-03-23T08:12:41.050Z,0.0
2018-03-23T08:13:40.632Z,0.0
2018-03-23T08:14:41.112Z,0.0
2018-03-23T08:15:40.669Z,0.0
2018-03-23T08:16:40.996Z,0.0
2018-03-23T08:18:41.079Z,0.0
2018-03-23T08:20:40.657Z,0.0
2018-03-23T08:21:41.050Z,0.0
2018-03-23T08:22:40.714Z,0.0
2018-03-23T08:23:40.863Z,0.0
2018-03-23T08:24:40.852Z,0.0
2018-03-23T08:25:41.071Z,0.0
2018-03-23T08:26:41.110Z,0.5
2018-03-23T08:27:41.064Z,0.5
2018-03-23T08:28:41.171Z,0.5
2018-03-23T08:31:41.057Z,0.5
2018-03-23T08:32:40.666Z,0.5
2018-03-23T08:33:40.838Z,0.5
2018-03-23T08:37:40.906Z,0.0
2018-03-23T08:38:41.144Z,0.0
2018-03-23T08:39:40.875Z,0.0
2018-03-23T08:40:41.071Z,0.0
2018-03-23T08:41:40.920Z,0.0
2018-03-23T08:42:40.693Z,0.0
2018-03-23T08:43:40.683Z,0.0
2018-03-23T08:44:40.752Z,0.0
2018-03-23T08:45:41.091Z,0.0
2018-03-23T08:46:41.066Z,0.0
2018-03-23T08:47:41.161Z,0.0
2018-03-23T08:49:41.103Z,0.0
2018-03-23T08:50:41.163Z,0.0
2018-03-23T08:52:40.723Z,0.0
2018-03-23T08:53:40.863Z,0.0
2018-03-23T08:54:41.157Z,0.0
2018-03-23T08:55:40.915Z,0.0
2018-03-23T08:56:41.210Z,0.0
2018-03-23T08:57:41.096Z,0.2
2018-03-23T08:59:41.114Z,0.0
2018-03-23T09:00:41.205Z,0.0
2018-03-23T09:01:41.093Z,0.0
2018-03-23T09:02:40.927Z,0.5
2018-03-23T09:03:41.132Z,0.5
2018-03-23T09:05:40.921Z,0.5
2018-03-23T09:06:41.136Z,0.5
2018-03-23T09:07:41.199Z,1.1
2018-03-23T09:08:40.741Z,1.1
2018-03-23T09:09:41.232Z,1.1
2018-03-23T09:10:40.791Z,0.8
2018-03-23T09:12:41.200Z,0.2
2018-03-23T09:13:40.809Z,0.2
2018-03-23T09:14:41.170Z,0.2
2018-03-23T09:15:40.820Z,0.0
2018-03-23T09:16:41.248Z,0.0
2018-03-23T09:17:41.014Z,0.5
2018-03-23T09:18:40.912Z,0.5
2018-03-23T09:19:40.775Z,0.5
2018-03-23T09:20:41.211Z,0.5
2018-03-23T09:21:41.226Z,0.5
2018-03-23T09:22:41.239Z,0.0
2018-03-23T09:23:40.711Z,0.0
2018-03-23T09:25:41.172Z,0.2
2018-03-23T09:26:41.183Z,0.2
2018-03-23T09:27:40.786Z,0.5
2018-03-23T09:29:41.228Z,0.5
2018-03-23T09:30:41.012Z,0.8
2018-03-23T09:31:41.272Z,0.8
2018-03-23T09:34:41.904Z,0.8
2018-03-23T09:35:40.977Z,0.5
2018-03-23T09:37:41.294Z,0.5
2018-03-23T09:38:41.528Z,0.5
2018-03-23T09:39:41.249Z,0.5
2018-03-23T09:40:41.394Z,0.5
2018-03-23T09:41:41.189Z,0.5
2018-03-23T09:42:41.234Z,0.5
2018-03-23T09:43:40.995Z,0.8
2018-03-23T09:44:41.224Z,0.8
2018-03-23T09:45:41.228Z,0.8
2018-03-23T09:46:41.035Z,0.8
2018-03-23T09:47:40.924Z,0.8
2018-03-23T09:48:40.890Z,1.1
2018-03-23T09:49:41.301Z,1.1
2018-03-23T09:50:41.107Z,0.0
2018-03-23T09:51:40.931Z,0.0
2018-03-23T09:52:41.343Z,0.0
2018-03-23T09:53:41.236Z,0.0
2018-03-23T09:54:41.290Z,0.0
2018-03-23T09:55:41.229Z,0.2
2018-03-23T09:56:41.229Z,0.2
2018-03-23T09:58:41.094Z,0.0
2018-03-23T09:59:41.373Z,0.0
2018-03-23T10:00:41.523Z,0.2
2018-03-23T10:01:41.291Z,0.2
2018-03-23T10:02:42.295Z,0.2
2018-03-23T10:03:41.167Z,0.0
2018-03-23T10:04:41.960Z,0.0
2018-03-23T10:06:41.468Z,0.0
2018-03-23T10:07:41.327Z,0.0
2018-03-23T10:08:41.357Z,0.0
2018-03-23T10:09:40.950Z,0.0
2018-03-23T10:11:41.236Z,0.8
2018-03-23T10:12:41.372Z,0.8
2018-03-23T10:14:40.939Z,0.5
2018-03-23T10:15:41.527Z,0.5
2018-03-23T10:16:41.115Z,0.0
2018-03-23T10:17:41.272Z,0.0
2018-03-23T10:18:41.386Z,0.5
2018-03-23T10:20:41.108Z,0.5
2018-03-23T10:23:41.071Z,0.0
2018-03-23T10:24:40.900Z,0.0
2018-03-23T10:26:41.459Z,0.0
2018-03-23T10:27:41.400Z,0.0
2018-03-23T10:28:41.363Z,1.1
2018-03-23T10:29:40.974Z,1.1
2018-03-23T10:30:41.471Z,1.1
2018-03-23T10:31:41.461Z,1.3
2018-03-23T10:32:40.900Z,1.3
2018-03-23T10:35:41.277Z,0.5
2018-03-23T10:36:41.116Z,0.5
2018-03-23T10:37:40.897Z,0.5
2018-03-23T10:38:41.299Z,0.2
2018-03-23T10:39:41.142Z,0.2
2018-03-23T10:40:40.940Z,0.2
2018-03-23T10:41:41.434Z,0.2
2018-03-23T10:43:41.093Z,0.2
2018-03-23T10:44:41.387Z,0.0
2018-03-23T10:45:41.328Z,0.0
2018-03-23T10:46:41.451Z,0.8
2018-03-23T10:48:41.158Z,0.8
2018-03-23T10:49:40.927Z,1.3
2018-03-23T10:50:41.110Z,1.3
2018-03-23T10:51:41.477Z,0.0
2018-03-23T10:52:41.521Z,0.0
2018-03-23T10:53:41.149Z,0.0
2018-03-23T10:54:41.136Z,0.0
2018-03-23T10:55:41.103Z,0.0
2018-03-23T10:56:40.943Z,0.2
2018-03-23T10:57:40.914Z,0.2
2018-03-23T10:59:40.938Z,0.0
2018-03-23T11:01:41.394Z,0.0
2018-03-23T11:02:41.417Z,0.0
2018-03-23T11:03:41.405Z,0.0
2018-03-23T11:04:41.334Z,0.0
2018-03-23T11:05:41.397Z,0.0
2018-03-23T11:06:41.349Z,0.0
2018-03-23T11:07:41.210Z,0.0
2018-03-23T11:08:41.356Z,0.0
2018-03-23T11:10:41.410Z,0.8
2018-03-23T11:12:41.183Z,0.5
2018-03-23T11:13:41.175Z,0.5
2018-03-23T11:14:42.454Z,0.2
2018-03-23T11:15:41.298Z,0.2
2018-03-23T11:17:41.196Z,0.5
2018-03-23T11:18:41.010Z,0.5
2018-03-23T11:19:40.978Z,0.8
2018-03-23T11:21:41.411Z,0.8
2018-03-23T11:22:41.196Z,2.2
2018-03-23T11:23:40.957Z,2.2
2018-03-23T11:25:41.350Z,0.2
2018-03-23T11:26:41.415Z,0.2
2018-03-23T11:27:40.999Z,0.2
2018-03-23T11:28:41.480Z,0.2
2018-03-23T11:29:41.205Z,1.9
2018-03-23T11:30:41.426Z,1.9
2018-03-23T11:32:41.433Z,1.3
2018-03-23T11:33:40.969Z,1.3
2018-03-23T11:35:41.380Z,0.5
2018-03-23T11:36:41.435Z,0.5
2018-03-23T11:37:41.457Z,2.2
2018-03-23T11:39:41.440Z,0.8
2018-03-23T11:40:41.535Z,0.8
2018-03-23T11:41:41.424Z,0.8
2018-03-23T11:42:41.441Z,0.5
2018-03-23T11:43:41.415Z,0.5
2018-03-23T11:44:41.273Z,0.5
2018-03-23T11:45:41.025Z,0.5
2018-03-23T11:46:41.427Z,0.5
2018-03-23T11:47:41.275Z,0.5
2018-03-23T11:48:41.900Z,0.5
2018-03-23T11:49:41.503Z,0.5
2018-03-23T11:50:41.546Z,0.2
2018-03-23T11:51:40.992Z,0.2
2018-03-23T11:52:41.442Z,1.6
2018-03-23T11:53:41.481Z,1.6
2018-03-23T11:54:41.494Z,1.6
2018-03-23T11:55:41.448Z,2.7
2018-03-23T11:56:41.400Z,2.7
2018-03-23T11:57:41.233Z,2.7
2018-03-23T11:58:41.424Z,2.7
2018-03-23T11:59:41.019Z,2.7
2018-03-23T12:00:41.453Z,3.3
2018-03-23T12:01:41.238Z,3.3
2018-03-23T12:02:41.065Z,1.1
2018-03-23T12:03:41.543Z,1.1
2018-03-23T12:04:41.458Z,1.1
2018-03-23T12:05:41.259Z,1.1
2018-03-23T12:06:41.720Z,1.1
2018-03-23T12:07:41.521Z,3.0
2018-03-23T12:09:41.700Z,3.0
2018-03-23T12:10:41.658Z,2.7
2018-03-23T12:13:41.635Z,2.7
2018-03-23T12:14:41.585Z,2.7
2018-03-23T12:15:41.458Z,3.3
2018-03-23T12:16:41.709Z,3.3
2018-03-23T12:17:41.264Z,3.3
2018-03-23T12:19:41.259Z,1.9
2018-03-23T12:20:41.247Z,1.3
2018-03-23T12:21:41.432Z,1.3
2018-03-23T12:22:41.512Z,1.3
2018-03-23T12:24:41.266Z,2.5
2018-03-23T12:25:41.302Z,1.6
2018-03-23T12:26:41.708Z,1.6
2018-03-23T12:27:41.272Z,1.6
2018-03-23T12:28:41.268Z,1.6
2018-03-23T12:30:41.536Z,1.1
2018-03-23T12:31:41.447Z,1.1
2018-03-23T12:32:41.069Z,1.1
2018-03-23T12:33:42.743Z,0.5
2018-03-23T12:34:41.087Z,0.5
2018-03-23T12:36:41.477Z,0.0
2018-03-23T12:37:41.280Z,0.0
2018-03-23T12:38:41.566Z,1.3
2018-03-23T12:39:41.314Z,1.3
2018-03-23T12:41:41.110Z,0.5
2018-03-23T12:42:41.535Z,0.5
2018-03-23T12:45:41.316Z,1.1
2018-03-23T12:46:41.114Z,1.1
2018-03-23T12:47:41.493Z,1.1
2018-03-23T12:48:41.828Z,2.2
2018-03-23T12:49:41.554Z,2.2
2018-03-23T12:50:41.537Z,2.2
2018-03-23T12:51:43.809Z,2.5
2018-03-23T12:52:41.713Z,2.5
2018-03-23T12:53:41.584Z,3.6
2018-03-23T12:54:41.397Z,3.6
2018-03-23T12:55:41.649Z,3.6
2018-03-23T12:56:41.154Z,3.8
2018-03-23T12:57:42.268Z,3.8
2018-03-23T12:58:41.168Z,1.6
2018-03-23T12:59:41.502Z,1.6
2018-03-23T13:00:41.598Z,1.6
2018-03-23T13:01:41.450Z,1.9
2018-03-23T13:02:41.435Z,1.9
2018-03-23T13:03:41.481Z,2.7
2018-03-23T13:05:41.256Z,2.7
2018-03-23T13:06:41.647Z,0.8
2018-03-23T13:08:41.588Z,0.8
2018-03-23T13:09:41.400Z,0.8
2018-03-23T13:10:41.206Z,0.8
2018-03-23T13:11:41.160Z,0.8
2018-03-23T13:12:41.704Z,0.8
2018-03-23T13:13:41.687Z,0.8
2018-03-23T13:14:41.548Z,1.9
2018-03-23T13:15:41.631Z,1.9
2018-03-23T13:16:41.158Z,1.3
2018-03-23T13:17:41.160Z,1.3
2018-03-23T13:18:41.635Z,1.3
2018-03-23T13:19:42.360Z,0.2
2018-03-23T13:20:41.832Z,0.2
2018-03-23T13:21:41.683Z,0.0
2018-03-23T13:23:41.572Z,0.0
2018-03-23T13:25:41.189Z,0.2
2018-03-23T13:26:41.396Z,0.2
2018-03-23T13:28:41.610Z,0.2
2018-03-23T13:29:41.203Z,0.2
2018-03-23T13:30:41.596Z,0.2
2018-03-23T13:31:41.672Z,0.2
2018-03-23T13:32:41.615Z,0.2
2018-03-23T13:33:41.764Z,0.2
2018-03-23T13:34:41.273Z,0.0
2018-03-23T13:35:41.616Z,0.0
2018-03-23T13:36:41.417Z,0.2
2018-03-23T13:37:41.424Z,0.2
2018-03-23T13:38:41.571Z,0.2
2018-03-23T13:39:41.664Z,8.0
2018-03-23T13:41:41.670Z,1.3
2018-03-23T13:42:41.822Z,1.3
2018-03-23T13:43:41.412Z,1.3
2018-03-23T13:44:41.235Z,0.5
2018-03-23T13:45:41.667Z,0.5
2018-03-23T13:46:41.284Z,0.5
2018-03-23T13:48:41.691Z,0.0
2018-03-23T13:49:41.647Z,0.0
2018-03-23T13:50:41.474Z,0.0
2018-03-23T13:51:41.656Z,0.0
2018-03-23T13:52:41.268Z,0.8
2018-03-23T13:53:41.413Z,0.8
2018-03-23T13:55:41.283Z,0.2
2018-03-23T13:56:41.719Z,0.2
2018-03-23T13:58:41.859Z,1.3
2018-03-23T13:59:41.320Z,0.0
2018-03-23T14:00:41.711Z,0.0
2018-03-23T14:01:41.770Z,0.0
2018-03-23T14:02:41.512Z,1.3
2018-03-23T14:03:41.685Z,1.3
2018-03-23T14:04:41.268Z,0.0
2018-03-23T14:05:41.537Z,0.0
2018-03-23T14:06:41.693Z,0.0
2018-03-23T14:07:41.344Z,0.0
2018-03-23T14:08:41.810Z,0.0
2018-03-23T14:09:41.490Z,1.6
2018-03-23T14:10:41.353Z,1.6
2018-03-23T14:11:42.367Z,1.6
2018-03-23T14:12:41.558Z,3.0
2018-03-23T14:13:41.886Z,3.0
2018-03-23T14:14:41.799Z,3.0
2018-03-23T14:15:41.517Z,1.1
2018-03-23T14:16:41.761Z,1.1
2018-03-23T14:17:45.597Z,1.6
2018-03-23T14:19:41.673Z,1.6
2018-03-23T14:21:41.545Z,1.3
2018-03-23T14:22:41.532Z,1.9
2018-03-23T14:23:41.582Z,1.9
2018-03-23T14:24:41.837Z,1.9
2018-03-23T14:25:41.819Z,1.9
2018-03-23T14:26:41.811Z,1.9
2018-03-23T14:27:41.437Z,1.9
2018-03-23T14:28:41.573Z,1.9
2018-03-23T14:29:41.701Z,1.9
2018-03-23T14:30:41.815Z,1.9
2018-03-23T14:32:41.370Z,1.6
2018-03-23T14:33:41.896Z,1.6
2018-03-23T14:34:41.627Z,1.6
2018-03-23T14:35:42.018Z,1.9
2018-03-23T14:36:41.700Z,1.9
2018-03-23T14:38:42.141Z,0.0
2018-03-23T14:39:41.768Z,0.0
2018-03-23T14:40:41.492Z,0.0
2018-03-23T14:41:41.593Z,0.0
2018-03-23T14:42:51.665Z,0.5
2018-03-23T14:43:41.392Z,0.5
2018-03-23T14:44:42.575Z,0.5
2018-03-23T14:45:42.017Z,2.2
2018-03-23T14:46:41.702Z,2.2
2018-03-23T14:47:41.788Z,2.2
2018-03-23T14:48:41.564Z,0.0
2018-03-23T14:49:53.266Z,0.0
2018-03-23T14:50:41.538Z,0.0
2018-03-23T14:51:41.324Z,0.0
2018-03-23T14:52:41.350Z,0.0
2018-03-23T14:53:41.369Z,0.0
2018-03-23T14:54:41.493Z,0.0
2018-03-23T14:55:41.786Z,0.0
2018-03-23T14:56:41.333Z,0.0
2018-03-23T14:57:41.743Z,0.0
2018-03-23T14:59:41.749Z,1.1
2018-03-23T15:00:41.417Z,0.0
2018-03-23T15:01:41.710Z,0.0
2018-03-23T15:02:41.410Z,0.0
2018-03-23T15:03:41.556Z,2.5
2018-03-23T15:04:41.891Z,2.5
2018-03-23T15:05:41.597Z,0.0
2018-03-23T15:06:41.812Z,0.0
2018-03-23T15:07:41.422Z,0.0
2018-03-23T15:08:42.492Z,0.0
2018-03-23T15:09:41.901Z,0.0
2018-03-23T15:10:41.780Z,0.0
2018-03-23T15:11:41.940Z,0.0
2018-03-23T15:12:41.615Z,0.0
2018-03-23T15:13:41.560Z,0.0
2018-03-23T15:14:41.400Z,0.0
2018-03-23T15:15:41.769Z,0.0
2018-03-23T15:16:41.376Z,0.2
2018-03-23T15:17:41.606Z,0.2
2018-03-23T15:18:41.855Z,0.0
2018-03-23T15:21:41.644Z,0.8
2018-03-23T15:22:41.444Z,0.8
2018-03-23T15:23:41.459Z,0.0
2018-03-23T15:24:41.946Z,0.0
2018-03-23T15:25:41.749Z,0.0
2018-03-23T15:26:41.883Z,0.2
2018-03-23T15:27:42.016Z,0.2
2018-03-23T15:29:42.293Z,0.0
2018-03-23T15:30:41.763Z,0.0
2018-03-23T15:31:41.540Z,0.0
2018-03-23T15:32:43.308Z,0.0
2018-03-23T15:33:41.868Z,0.5
2018-03-23T15:34:41.788Z,0.5
2018-03-23T15:35:42.263Z,0.5
2018-03-23T15:37:41.850Z,1.9
2018-03-23T15:38:41.951Z,3.3
2018-03-23T15:39:41.900Z,3.3
2018-03-23T15:40:41.494Z,3.3
2018-03-23T15:41:41.683Z,3.0
2018-03-23T15:42:41.467Z,3.0
2018-03-23T15:43:41.940Z,2.5
2018-03-23T15:45:41.947Z,2.5
2018-03-23T15:46:41.659Z,1.1
2018-03-23T15:47:41.690Z,1.1
2018-03-23T15:49:41.644Z,0.8
2018-03-23T15:50:41.948Z,0.8
2018-03-23T15:51:41.443Z,0.8
2018-03-23T15:52:41.643Z,0.8
2018-03-23T15:53:41.490Z,0.8
2018-03-23T15:54:41.857Z,3.0
2018-03-23T15:55:41.972Z,3.0
2018-03-23T15:56:41.721Z,0.8
2018-03-23T15:57:41.861Z,0.8
2018-03-23T15:59:41.485Z,9.4
2018-03-23T16:00:41.708Z,9.4
2018-03-23T16:01:41.997Z,0.2
2018-03-23T16:03:41.676Z,0.2
2018-03-23T16:04:41.987Z,1.3
2018-03-23T16:05:41.986Z,1.3
2018-03-23T16:06:41.460Z,3.0